createdAt,value
2019-06-10T04:03:53.804Z,79.046631
2019-06-10T04:07:26.312Z,80.627441
2019-06-10T04:10:56.668Z,78.405762
2019-06-10T04:14:27.046Z,80.023193
2019-06-10T04:17:56.543Z,79.412842
2019-06-10T04:21:27.191Z,80.224609
2019-06-10T04:24:56.445Z,82.043457
2019-06-10T04:28:27.554Z,81.536865
2019-06-10T04:31:56.330Z,79.516602
2019-06-10T04:35:27.616Z,81.536865
2019-06-10T04:38:56.215Z,80.529785
2019-06-10T04:42:27.320Z,79.821777
2019-06-10T04:45:56.082Z,80.731201
2019-06-10T04:49:27.062Z,80.529785
2019-06-10T04:52:56.975Z,80.828857
2019-06-10T04:56:29.281Z,81.842041
2019-06-10T04:59:58.834Z,79.718018
2019-06-10T05:03:33.102Z,80.932617
2019-06-10T05:07:02.190Z,81.134033
2019-06-10T05:10:32.985Z,80.12085
2019-06-10T05:13:59.656Z,81.536865
2019-06-10T05:17:30.957Z,81.939697
2019-06-10T05:20:59.525Z,82.849121
2019-06-10T05:24:30.550Z,82.611084
2019-06-10T05:27:59.409Z,81.335449
2019-06-10T05:31:30.890Z,81.842041
2019-06-10T05:35:03.274Z,83.557129
2019-06-10T05:38:34.864Z,86.2854
2019-06-10T05:42:03.254Z,85.986328
2019-06-10T05:45:34.409Z,85.27832
2019-06-10T05:49:03.037Z,83.959961
2019-06-10T05:52:31.270Z,83.758545
2019-06-10T05:56:02.277Z,84.667969
2019-06-10T05:59:29.903Z,83.154297
2019-06-10T06:02:59.833Z,83.660889
2019-06-10T06:06:29.129Z,83.258057
2019-06-10T06:10:02.710Z,82.849121
2019-06-10T06:13:33.783Z,82.8125
2019-06-10T06:17:02.576Z,82.208252
2019-06-10T06:20:31.754Z,82.305908
2019-06-10T06:24:03.822Z,83.92334
2019-06-10T06:27:33.781Z,82.507324
2019-06-10T06:31:04.365Z,83.013916
2019-06-10T06:34:35.739Z,83.984375
2019-06-10T06:38:05.237Z,82.269287
2019-06-10T06:41:35.451Z,82.672119
2019-06-10T06:45:05.142Z,82.568359
2019-06-10T06:48:37.419Z,82.873535
2019-06-10T06:52:07.174Z,83.074951
2019-06-10T06:55:38.369Z,83.880615
2019-06-10T06:59:07.076Z,84.0271
2019-06-10T07:02:37.580Z,85.095215
2019-06-10T07:06:07.977Z,85.339355
2019-06-10T07:09:38.991Z,85.638428
2019-06-10T07:13:12.863Z,86.547852
2019-06-10T07:16:44.279Z,87.054443
2019-06-10T07:20:13.817Z,87.414551
2019-06-10T07:23:46.584Z,88.62915
2019-06-10T07:27:13.383Z,90.344238
2019-06-10T07:30:50.957Z,91.61377
2019-06-10T07:34:16.534Z,92.523193
2019-06-10T07:37:47.056Z,92.724609
2019-06-10T07:41:17.019Z,93.182373
2019-06-10T07:44:46.855Z,93.225098
2019-06-10T07:48:16.695Z,92.926025
2019-06-10T07:51:46.711Z,92.218018
2019-06-10T07:55:15.613Z,92.218018
2019-06-10T07:58:47.523Z,91.412354
2019-06-10T08:02:15.516Z,91.308594
2019-06-10T08:05:46.443Z,91.668701
2019-06-10T08:09:14.420Z,91.973877
2019-06-10T08:12:44.699Z,91.625977
2019-06-10T08:16:14.813Z,91.625977
2019-06-10T08:19:49.365Z,91.223145
2019-06-10T08:23:17.989Z,91.52832
2019-06-10T08:26:47.749Z,91.931152
2019-06-10T08:30:22.739Z,91.223145
2019-06-10T08:33:49.908Z,90.2771
2019-06-10T08:37:18.902Z,89.868164
2019-06-10T08:40:52.310Z,89.770508
2019-06-10T08:44:18.831Z,89.367676
2019-06-10T08:47:49.147Z,88.15918
2019-06-10T08:51:18.731Z,87.554932
2019-06-10T08:54:50.706Z,87.756348
2019-06-10T08:58:19.650Z,87.249756
2019-06-10T09:01:53.584Z,86.645508
2019-06-10T09:05:23.222Z,86.444092
2019-06-10T09:08:54.533Z,86.505127
2019-06-10T09:12:29.852Z,86.364746
2019-06-10T09:16:10.758Z,86.322021
2019-06-10T09:19:34.370Z,85.821533
2019-06-10T09:23:17.221Z,83.404541
2019-06-10T09:26:44.472Z,82.904053
2019-06-10T09:30:14.136Z,84.472656
2019-06-10T09:33:48.861Z,81.854248
2019-06-10T09:37:17.481Z,82.36084
2019-06-10T09:40:52.037Z,81.555176
2019-06-10T09:44:22.856Z,82.458496
2019-06-10T09:47:57.998Z,82.36084
2019-06-10T09:51:25.313Z,82.720947
2019-06-10T09:54:56.649Z,82.48291
2019-06-10T09:58:25.248Z,82.543945
2019-06-10T10:02:03.544Z,80.432129
2019-06-10T10:05:34.676Z,79.992676
2019-06-10T10:09:04.629Z,81.70166
2019-06-10T10:12:33.637Z,79.956055
2019-06-10T10:16:02.871Z,80.01709
2019-06-10T10:19:30.636Z,78.417969
2019-06-10T10:22:58.626Z,77.075195
2019-06-10T10:26:28.605Z,78.881836
2019-06-10T10:29:57.586Z,78.375244
2019-06-10T10:33:30.022Z,76.739502
2019-06-10T10:36:59.522Z,76.538086
2019-06-10T10:40:28.513Z,77.941895
2019-06-10T10:43:59.450Z,78.137207
2019-06-10T10:47:28.431Z,76.702881
2019-06-10T10:50:58.463Z,77.301025
2019-06-10T10:54:33.664Z,76.5625
2019-06-10T10:58:02.991Z,77.667236
2019-06-10T11:01:29.446Z,75.561523
2019-06-10T11:04:58.404Z,76.928711
2019-06-10T11:08:26.422Z,76.330566
2019-06-10T11:11:57.337Z,75.427246
2019-06-10T11:15:26.415Z,76.293945
2019-06-10T11:18:57.987Z,75.292969
2019-06-10T11:22:26.341Z,76.391602
2019-06-10T11:25:57.084Z,74.725342
2019-06-10T11:29:25.917Z,78.564453
2019-06-10T11:32:58.139Z,75.463867
2019-06-10T11:36:27.791Z,74.963379
2019-06-10T11:39:56.499Z,76.397705
2019-06-10T11:43:24.727Z,76.434326
2019-06-10T11:46:58.043Z,78.039551
2019-06-10T11:50:26.677Z,77.539062
2019-06-10T11:53:57.596Z,78.338623
2019-06-10T11:57:26.752Z,77.941895
2019-06-10T12:01:00.189Z,77.478027
2019-06-10T12:04:30.130Z,78.179932
2019-06-10T12:08:01.286Z,80.12085
2019-06-10T12:11:29.047Z,79.919434
2019-06-10T12:15:01.433Z,80.218506
2019-06-10T12:18:29.019Z,80.419922
2019-06-10T12:22:01.774Z,79.919434
2019-06-10T12:25:38.567Z,79.382324
2019-06-10T12:29:06.060Z,79.577637
2019-06-10T12:32:34.963Z,79.516602
2019-06-10T12:36:07.023Z,79.315186
2019-06-10T12:39:36.183Z,79.516602
2019-06-10T12:43:07.439Z,78.979492
2019-06-10T12:46:35.869Z,77.941895
2019-06-10T12:50:05.751Z,78.479004
2019-06-10T12:53:34.721Z,79.241943
2019-06-10T12:57:06.876Z,79.443359
2019-06-10T13:00:35.539Z,78.302002
2019-06-10T13:04:07.559Z,78.00293
2019-06-10T13:07:38.014Z,77.966309
2019-06-10T13:11:08.289Z,77.264404
2019-06-10T13:14:37.968Z,76.062012
2019-06-10T13:18:11.954Z,75.32959
2019-06-10T13:21:43.004Z,75.592041
2019-06-10T13:25:13.329Z,76.452637
2019-06-10T13:28:39.991Z,73.55957
2019-06-10T13:32:09.935Z,73.120117
2019-06-10T13:35:37.962Z,73.822021
2019-06-10T13:39:10.413Z,73.620605
2019-06-10T13:42:38.925Z,73.620605
2019-06-10T13:46:10.729Z,73.919678
2019-06-10T13:49:37.897Z,73.284912
2019-06-10T13:53:08.475Z,73.223877
2019-06-10T13:56:46.939Z,74.121094
2019-06-10T14:00:14.590Z,74.920654
2019-06-10T14:03:43.294Z,75.317383
2019-06-10T14:07:17.206Z,74.121094
2019-06-10T14:10:43.767Z,74.621582
2019-06-10T14:14:17.387Z,73.883057
2019-06-10T14:17:44.714Z,72.949219
2019-06-10T14:21:18.161Z,70.788574
2019-06-10T14:24:45.613Z,69.525146
2019-06-10T14:28:32.598Z,68.096924
2019-06-10T14:31:49.599Z,67.602539
2019-06-10T14:35:19.492Z,67.401123
2019-06-10T14:38:50.427Z,64.361572
2019-06-10T14:42:18.401Z,63.830566
2019-06-10T14:45:47.390Z,62.341309
2019-06-10T14:49:17.559Z,61.71875
2019-06-10T14:52:48.484Z,61.914062
2019-06-10T14:56:19.838Z,62.084961
2019-06-10T14:59:52.959Z,60.498047
2019-06-10T15:03:21.485Z,59.436035
2019-06-10T15:06:53.646Z,60.229492
2019-06-10T15:10:23.526Z,61.151123
2019-06-10T15:13:53.359Z,61.450195
2019-06-10T15:17:23.329Z,61.053467
2019-06-10T15:20:54.439Z,61.975098
2019-06-10T15:24:24.391Z,62.82959
2019-06-10T15:27:53.342Z,65.179443
2019-06-10T15:31:23.350Z,66.040039
2019-06-10T15:34:53.366Z,67.767334
2019-06-10T15:38:23.104Z,67.266846
2019-06-10T15:41:52.414Z,67.401123
2019-06-10T15:45:21.388Z,67.700195
2019-06-10T15:48:49.379Z,67.700195
2019-06-10T15:52:22.300Z,69.32373
2019-06-10T15:56:14.145Z,70.422363
2019-06-10T15:59:26.387Z,71.722412
2019-06-10T16:03:02.914Z,69.024658
2019-06-10T16:06:32.903Z,71.258545
2019-06-10T16:10:02.666Z,71.557617
2019-06-10T16:13:28.927Z,70.953369
2019-06-10T16:16:57.885Z,70.489502
2019-06-10T16:20:26.858Z,70.98999
2019-06-10T16:23:55.892Z,70.892334
2019-06-10T16:27:43.379Z,69.494629
2019-06-10T16:31:02.498Z,69.989014
2019-06-10T16:34:29.846Z,69.293213
2019-06-10T16:37:58.799Z,69.793701
2019-06-10T16:41:28.159Z,70.690918
2019-06-10T16:44:56.683Z,69.622803
2019-06-10T16:48:26.633Z,69.726562
2019-06-10T16:51:56.582Z,69.927979
2019-06-10T16:55:27.203Z,69.75708
2019-06-10T16:58:56.483Z,71.057129
2019-06-10T17:02:26.897Z,71.856689
2019-06-10T17:05:56.399Z,74.255371
2019-06-10T17:09:27.694Z,72.491455
2019-06-10T17:12:57.276Z,71.893311
2019-06-10T17:16:28.027Z,72.491455
2019-06-10T17:19:56.153Z,71.624756
2019-06-10T17:23:30.673Z,71.362305
2019-06-10T17:26:59.040Z,73.461914
2019-06-10T17:30:30.000Z,71.594238
2019-06-10T17:33:58.964Z,74.029541
2019-06-10T17:37:28.615Z,73.565674
2019-06-10T17:40:57.866Z,74.468994
2019-06-10T17:44:29.461Z,74.066162
2019-06-10T17:47:59.082Z,76.409912
2019-06-10T17:51:31.494Z,74.401855
2019-06-10T17:55:03.207Z,75.543213
2019-06-10T17:58:42.921Z,75.744629
2019-06-10T18:02:05.248Z,74.841309
2019-06-10T18:05:34.349Z,75.476074
2019-06-10T18:09:03.988Z,76.019287
2019-06-10T18:12:34.464Z,76.519775
2019-06-10T18:16:03.567Z,76.416016
2019-06-10T18:19:35.672Z,77.722168
2019-06-10T18:23:03.513Z,77.960205
2019-06-10T18:26:35.830Z,77.459717
2019-06-10T18:30:10.619Z,77.355957
2019-06-10T18:33:38.346Z,78.900146
2019-06-10T18:37:07.315Z,78.302002
2019-06-10T18:40:36.276Z,78.338623
2019-06-10T18:44:19.651Z,79.040527
2019-06-10T18:47:43.122Z,80.047607
2019-06-10T18:51:12.534Z,80.145264
2019-06-10T18:54:43.327Z,80.389404
2019-06-10T18:58:10.003Z,80.389404
2019-06-10T19:01:38.763Z,80.584717
2019-06-10T19:05:06.977Z,81.188965
2019-06-10T19:08:38.818Z,80.688477
2019-06-10T19:12:08.848Z,81.634521
2019-06-10T19:15:40.293Z,81.433105
2019-06-10T19:19:08.741Z,82.13501
2019-06-10T19:22:39.319Z,82.739258
2019-06-10T19:26:09.807Z,81.433105
2019-06-10T19:29:46.904Z,82.678223
2019-06-10T19:33:13.748Z,81.774902
2019-06-10T19:36:42.792Z,82.781982
2019-06-10T19:40:12.750Z,82.678223
2019-06-10T19:43:45.230Z,82.781982
2019-06-10T19:47:13.035Z,82.275391
2019-06-10T19:50:48.018Z,83.02002
2019-06-10T19:54:15.847Z,83.624268
2019-06-10T19:57:44.827Z,83.624268
2019-06-10T20:01:12.949Z,83.624268
2019-06-10T20:04:42.806Z,84.0271
2019-06-10T20:08:12.876Z,84.228516
2019-06-10T20:11:45.582Z,84.631348
2019-06-10T20:15:13.886Z,84.973145
2019-06-10T20:18:47.524Z,84.875488
2019-06-10T20:22:14.778Z,85.375977
2019-06-10T20:25:46.872Z,85.076904
2019-06-10T20:29:16.768Z,85.27832
2019-06-10T20:32:51.473Z,85.375977
2019-06-10T20:36:23.107Z,84.875488
2019-06-10T20:39:53.792Z,84.875488
2019-06-10T20:43:22.376Z,85.076904
2019-06-10T20:46:52.701Z,85.778809
2019-06-10T20:50:19.393Z,85.980225
2019-06-10T20:53:49.143Z,86.181641
2019-06-10T20:57:17.290Z,85.980225
2019-06-10T21:00:52.209Z,86.126709
2019-06-10T21:04:20.138Z,85.516357
2019-06-10T21:07:51.733Z,86.425781
2019-06-10T21:11:18.061Z,86.627197
2019-06-10T21:14:48.428Z,86.26709
2019-06-10T21:18:17.938Z,86.566162
2019-06-10T21:21:50.116Z,86.968994
2019-06-10T21:25:20.009Z,87.37793
2019-06-10T21:28:51.064Z,86.767578
2019-06-10T21:32:20.940Z,87.982178
2019-06-10T21:35:50.178Z,87.677002
2019-06-10T21:39:19.834Z,87.780762
2019-06-10T21:42:49.954Z,87.475586
2019-06-10T21:46:22.449Z,87.982178
2019-06-10T21:49:50.495Z,87.878418
2019-06-10T21:53:22.286Z,87.677002
2019-06-10T21:56:52.342Z,87.817383
